sensor_id;sensor_type;location;lat;lon;timestamp;P1;durP1;ratioP1;P2;durP2;ratioP2
54428;SDS011;40337;52.978;6.310;2023-03-01T00:02:05;23.10;;;20.63;;
54428;SDS011;40337;52.978;6.310;2023-03-01T00:04:31;23.55;;;21.05;;
54428;SDS011;40337;52.978;6.310;2023-03-01T00:06:57;22.95;;;20.35;;
54428;SDS011;40337;52.978;6.310;2023-03-01T00:09:22;28.02;;;24.40;;
54428;SDS011;40337;52.978;6.310;2023-03-01T00:11:48;28.52;;;25.33;;
54428;SDS011;40337;52.978;6.310;2023-03-01T00:14:14;24.40;;;21.77;;
54428;SDS011;40337;52.978;6.310;2023-03-01T00:16:42;22.77;;;19.88;;
54428;SDS011;40337;52.978;6.310;2023-03-01T00:19:18;20.25;;;18.13;;
54428;SDS011;40337;52.978;6.310;2023-03-01T00:21:45;18.85;;;16.85;;
54428;SDS011;40337;52.978;6.310;2023-03-01T00:24:11;22.30;;;19.70;;
54428;SDS011;40337;52.978;6.310;2023-03-01T00:26:37;20.25;;;17.35;;
54428;SDS011;40337;52.978;6.310;2023-03-01T00:29:03;20.45;;;17.98;;
54428;SDS011;40337;52.978;6.310;2023-03-01T00:31:29;22.92;;;20.33;;
54428;SDS011;40337;52.978;6.310;2023-03-01T00:33:58;21.65;;;19.40;;
54428;SDS011;40337;52.978;6.310;2023-03-01T00:36:27;19.15;;;17.15;;
54428;SDS011;40337;52.978;6.310;2023-03-01T00:38:54;24.63;;;21.75;;
54428;SDS011;40337;52.978;6.310;2023-03-01T00:41:19;23.90;;;21.48;;
54428;SDS011;40337;52.978;6.310;2023-03-01T00:43:47;25.20;;;22.02;;
54428;SDS011;40337;52.978;6.310;2023-03-01T00:46:15;28.80;;;23.75;;
54428;SDS011;40337;52.978;6.310;2023-03-01T00:48:43;23.95;;;21.38;;
54428;SDS011;40337;52.978;6.310;2023-03-01T00:51:14;24.25;;;21.63;;
54428;SDS011;40337;52.978;6.310;2023-03-01T00:53:49;26.90;;;23.92;;
54428;SDS011;40337;52.978;6.310;2023-03-01T00:56:16;27.98;;;24.42;;
54428;SDS011;40337;52.978;6.310;2023-03-01T00:58:42;28.65;;;25.60;;
54428;SDS011;40337;52.978;6.310;2023-03-01T01:01:09;31.77;;;27.83;;
54428;SDS011;40337;52.978;6.310;2023-03-01T01:03:43;27.60;;;24.48;;
54428;SDS011;40337;52.978;6.310;2023-03-01T01:06:13;25.05;;;22.35;;
54428;SDS011;40337;52.978;6.310;2023-03-01T01:08:47;24.33;;;21.73;;
54428;SDS011;40337;52.978;6.310;2023-03-01T01:11:13;27.10;;;23.35;;
54428;SDS011;40337;52.978;6.310;2023-03-01T01:13:40;25.70;;;22.48;;
54428;SDS011;40337;52.978;6.310;2023-03-01T01:16:06;26.95;;;24.05;;
54428;SDS011;40337;52.978;6.310;2023-03-01T01:18:32;23.92;;;21.40;;
54428;SDS011;40337;52.978;6.310;2023-03-01T01:21:02;21.75;;;18.90;;
54428;SDS011;40337;52.978;6.310;2023-03-01T01:23:30;14.30;;;12.80;;
54428;SDS011;40337;52.978;6.310;2023-03-01T01:25:56;13.80;;;12.40;;
54428;SDS011;40337;52.978;6.310;2023-03-01T01:28:21;15.60;;;14.00;;
54428;SDS011;40337;52.978;6.310;2023-03-01T01:30:47;17.92;;;16.02;;
54428;SDS011;40337;52.978;6.310;2023-03-01T01:33:12;23.80;;;18.42;;
54428;SDS011;40337;52.978;6.310;2023-03-01T01:35:38;102.60;;;23.33;;
54428;SDS011;40337;52.978;6.310;2023-03-01T01:38:03;166.43;;;25.98;;
54428;SDS011;40337;52.978;6.310;2023-03-01T01:40:29;189.82;;;27.65;;
54428;SDS011;40337;52.978;6.310;2023-03-01T01:42:54;193.00;;;28.73;;
54428;SDS011;40337;52.978;6.310;2023-03-01T01:48:10;283.23;;;30.50;;
54428;SDS011;40337;52.978;6.310;2023-03-01T01:50:40;243.68;;;31.10;;
54428;SDS011;40337;52.978;6.310;2023-03-01T01:53:07;108.72;;;26.90;;
54428;SDS011;40337;52.978;6.310;2023-03-01T01:55:42;129.18;;;31.10;;
54428;SDS011;40337;52.978;6.310;2023-03-01T01:58:15;114.38;;;32.15;;
54428;SDS011;40337;52.978;6.310;2023-03-01T02:00:44;134.80;;;35.90;;
54428;SDS011;40337;52.978;6.310;2023-03-01T02:03:11;138.07;;;34.50;;
54428;SDS011;40337;52.978;6.310;2023-03-01T02:05:47;397.63;;;41.13;;
54428;SDS011;40337;52.978;6.310;2023-03-01T02:08:15;205.65;;;35.63;;
54428;SDS011;40337;52.978;6.310;2023-03-01T02:10:43;317.00;;;43.90;;
54428;SDS011;40337;52.978;6.310;2023-03-01T02:13:10;356.92;;;41.38;;
54428;SDS011;40337;52.978;6.310;2023-03-01T02:15:37;137.32;;;34.33;;
54428;SDS011;40337;52.978;6.310;2023-03-01T02:18:04;479.40;;;53.72;;
54428;SDS011;40337;52.978;6.310;2023-03-01T02:23:45;319.90;;;37.20;;
54428;SDS011;40337;52.978;6.310;2023-03-01T02:26:23;485.75;;;43.03;;
54428;SDS011;40337;52.978;6.310;2023-03-01T02:29:13;513.30;;;48.60;;
54428;SDS011;40337;52.978;6.310;2023-03-01T02:31:39;463.95;;;41.38;;
54428;SDS011;40337;52.978;6.310;2023-03-01T02:34:15;311.90;;;32.92;;
54428;SDS011;40337;52.978;6.310;2023-03-01T02:36:49;282.08;;;31.38;;
54428;SDS011;40337;52.978;6.310;2023-03-01T02:39:26;273.25;;;32.33;;
54428;SDS011;40337;52.978;6.310;2023-03-01T02:41:59;213.73;;;28.27;;
54428;SDS011;40337;52.978;6.310;2023-03-01T02:44:26;426.92;;;49.42;;
54428;SDS011;40337;52.978;6.310;2023-03-01T02:46:53;340.08;;;39.47;;
54428;SDS011;40337;52.978;6.310;2023-03-01T02:49:28;348.45;;;38.65;;
54428;SDS011;40337;52.978;6.310;2023-03-01T02:57:13;193.57;;;31.55;;
54428;SDS011;40337;52.978;6.310;2023-03-01T02:59:39;79.90;;;30.02;;
54428;SDS011;40337;52.978;6.310;2023-03-01T03:02:08;41.53;;;26.15;;
54428;SDS011;40337;52.978;6.310;2023-03-01T03:05:01;72.18;;;27.70;;
54428;SDS011;40337;52.978;6.310;2023-03-01T03:07:33;95.28;;;28.90;;
54428;SDS011;40337;52.978;6.310;2023-03-01T03:10:00;55.97;;;29.05;;
54428;SDS011;40337;52.978;6.310;2023-03-01T03:12:26;62.45;;;27.90;;
54428;SDS011;40337;52.978;6.310;2023-03-01T03:14:52;46.50;;;25.95;;
54428;SDS011;40337;52.978;6.310;2023-03-01T03:17:17;28.25;;;25.25;;
54428;SDS011;40337;52.978;6.310;2023-03-01T03:19:43;28.52;;;24.35;;
54428;SDS011;40337;52.978;6.310;2023-03-01T03:22:10;88.82;;;27.15;;
54428;SDS011;40337;52.978;6.310;2023-03-01T03:24:36;91.22;;;27.20;;
54428;SDS011;40337;52.978;6.310;2023-03-01T03:27:03;103.00;;;27.55;;
54428;SDS011;40337;52.978;6.310;2023-03-01T03:29:29;43.58;;;24.33;;
54428;SDS011;40337;52.978;6.310;2023-03-01T03:31:55;50.03;;;24.45;;
54428;SDS011;40337;52.978;6.310;2023-03-01T03:34:21;28.15;;;23.10;;
54428;SDS011;40337;52.978;6.310;2023-03-01T03:36:47;24.35;;;21.40;;
54428;SDS011;40337;52.978;6.310;2023-03-01T03:39:12;26.45;;;21.83;;
54428;SDS011;40337;52.978;6.310;2023-03-01T03:41:38;32.95;;;21.95;;
54428;SDS011;40337;52.978;6.310;2023-03-01T03:44:03;89.32;;;23.83;;
54428;SDS011;40337;52.978;6.310;2023-03-01T03:46:29;46.72;;;23.00;;
54428;SDS011;40337;52.978;6.310;2023-03-01T03:48:55;87.95;;;26.17;;
54428;SDS011;40337;52.978;6.310;2023-03-01T03:51:20;34.83;;;23.17;;
54428;SDS011;40337;52.978;6.310;2023-03-01T03:53:47;30.17;;;21.38;;
54428;SDS011;40337;52.978;6.310;2023-03-01T03:56:13;86.82;;;24.50;;
54428;SDS011;40337;52.978;6.310;2023-03-01T03:58:39;99.15;;;19.30;;
54428;SDS011;40337;52.978;6.310;2023-03-01T04:01:05;65.13;;;18.27;;
54428;SDS011;40337;52.978;6.310;2023-03-01T04:03:31;76.53;;;19.80;;
54428;SDS011;40337;52.978;6.310;2023-03-01T04:05:58;144.75;;;20.98;;
54428;SDS011;40337;52.978;6.310;2023-03-01T04:08:24;97.03;;;18.70;;
54428;SDS011;40337;52.978;6.310;2023-03-01T04:10:51;28.65;;;17.95;;
54428;SDS011;40337;52.978;6.310;2023-03-01T04:13:21;19.50;;;17.27;;
54428;SDS011;40337;52.978;6.310;2023-03-01T04:15:50;21.08;;;18.90;;
54428;SDS011;40337;52.978;6.310;2023-03-01T04:18:17;19.95;;;17.90;;
54428;SDS011;40337;52.978;6.310;2023-03-01T04:20:44;20.67;;;18.48;;
54428;SDS011;40337;52.978;6.310;2023-03-01T04:23:14;19.88;;;17.85;;
54428;SDS011;40337;52.978;6.310;2023-03-01T04:25:49;19.55;;;17.63;;
54428;SDS011;40337;52.978;6.310;2023-03-01T04:28:20;18.00;;;16.13;;
54428;SDS011;40337;52.978;6.310;2023-03-01T04:30:52;18.25;;;16.42;;
54428;SDS011;40337;52.978;6.310;2023-03-01T04:33:18;17.63;;;15.93;;
54428;SDS011;40337;52.978;6.310;2023-03-01T04:35:44;16.00;;;14.40;;
54428;SDS011;40337;52.978;6.310;2023-03-01T04:38:10;14.88;;;13.48;;
54428;SDS011;40337;52.978;6.310;2023-03-01T04:40:36;14.57;;;13.15;;
54428;SDS011;40337;52.978;6.310;2023-03-01T04:43:02;15.18;;;13.65;;
54428;SDS011;40337;52.978;6.310;2023-03-01T04:45:29;13.30;;;12.00;;
54428;SDS011;40337;52.978;6.310;2023-03-01T04:47:56;13.27;;;11.98;;
54428;SDS011;40337;52.978;6.310;2023-03-01T04:50:23;12.98;;;11.68;;
54428;SDS011;40337;52.978;6.310;2023-03-01T04:52:50;12.52;;;11.32;;
54428;SDS011;40337;52.978;6.310;2023-03-01T04:55:16;13.00;;;11.80;;
54428;SDS011;40337;52.978;6.310;2023-03-01T04:57:42;12.40;;;11.20;;
54428;SDS011;40337;52.978;6.310;2023-03-01T05:00:09;13.85;;;11.77;;
54428;SDS011;40337;52.978;6.310;2023-03-01T05:02:46;13.48;;;12.18;;
54428;SDS011;40337;52.978;6.310;2023-03-01T05:05:18;12.70;;;11.40;;
54428;SDS011;40337;52.978;6.310;2023-03-01T05:07:44;13.10;;;11.90;;
54428;SDS011;40337;52.978;6.310;2023-03-01T05:10:10;12.77;;;11.57;;
54428;SDS011;40337;52.978;6.310;2023-03-01T05:12:35;13.18;;;11.88;;
54428;SDS011;40337;52.978;6.310;2023-03-01T05:15:02;14.20;;;12.90;;
54428;SDS011;40337;52.978;6.310;2023-03-01T05:17:32;13.73;;;12.43;;
54428;SDS011;40337;52.978;6.310;2023-03-01T05:19:58;14.57;;;13.18;;
54428;SDS011;40337;52.978;6.310;2023-03-01T05:22:24;14.32;;;13.02;;
54428;SDS011;40337;52.978;6.310;2023-03-01T05:24:50;14.93;;;13.52;;
54428;SDS011;40337;52.978;6.310;2023-03-01T05:27:15;15.15;;;13.75;;
54428;SDS011;40337;52.978;6.310;2023-03-01T05:29:41;15.63;;;14.13;;
54428;SDS011;40337;52.978;6.310;2023-03-01T05:32:07;14.45;;;13.05;;
54428;SDS011;40337;52.978;6.310;2023-03-01T05:34:34;14.65;;;13.32;;
54428;SDS011;40337;52.978;6.310;2023-03-01T05:37:00;14.75;;;13.35;;
54428;SDS011;40337;52.978;6.310;2023-03-01T05:39:27;14.23;;;12.93;;
54428;SDS011;40337;52.978;6.310;2023-03-01T05:41:55;14.60;;;13.20;;
54428;SDS011;40337;52.978;6.310;2023-03-01T05:44:22;13.75;;;12.45;;
54428;SDS011;40337;52.978;6.310;2023-03-01T05:46:48;13.65;;;12.35;;
54428;SDS011;40337;52.978;6.310;2023-03-01T05:49:14;13.35;;;12.02;;
54428;SDS011;40337;52.978;6.310;2023-03-01T05:51:41;13.65;;;12.30;;
54428;SDS011;40337;52.978;6.310;2023-03-01T05:54:08;13.05;;;11.85;;
54428;SDS011;40337;52.978;6.310;2023-03-01T05:56:35;13.15;;;11.85;;
54428;SDS011;40337;52.978;6.310;2023-03-01T05:59:02;13.93;;;12.63;;
54428;SDS011;40337;52.978;6.310;2023-03-01T06:01:30;12.70;;;11.50;;
54428;SDS011;40337;52.978;6.310;2023-03-01T06:03:56;16.23;;;11.50;;
54428;SDS011;40337;52.978;6.310;2023-03-01T06:06:22;13.07;;;11.88;;
54428;SDS011;40337;52.978;6.310;2023-03-01T06:08:48;14.98;;;13.57;;
54428;SDS011;40337;52.978;6.310;2023-03-01T06:11:14;16.58;;;14.77;;
54428;SDS011;40337;52.978;6.310;2023-03-01T06:13:41;17.77;;;15.88;;
54428;SDS011;40337;52.978;6.310;2023-03-01T06:16:10;17.10;;;15.30;;
54428;SDS011;40337;52.978;6.310;2023-03-01T06:18:37;17.88;;;15.98;;
54428;SDS011;40337;52.978;6.310;2023-03-01T06:21:03;16.40;;;14.70;;
54428;SDS011;40337;52.978;6.310;2023-03-01T06:23:30;17.45;;;15.65;;
54428;SDS011;40337;52.978;6.310;2023-03-01T06:25:55;17.73;;;16.02;;
54428;SDS011;40337;52.978;6.310;2023-03-01T06:28:21;17.70;;;15.80;;
54428;SDS011;40337;52.978;6.310;2023-03-01T06:30:47;15.70;;;14.20;;
54428;SDS011;40337;52.978;6.310;2023-03-01T06:33:13;17.10;;;15.40;;
54428;SDS011;40337;52.978;6.310;2023-03-01T06:35:38;18.65;;;14.85;;
54428;SDS011;40337;52.978;6.310;2023-03-01T06:38:04;17.90;;;14.27;;
54428;SDS011;40337;52.978;6.310;2023-03-01T06:40:30;17.88;;;14.77;;
54428;SDS011;40337;52.978;6.310;2023-03-01T06:42:57;19.73;;;15.75;;
54428;SDS011;40337;52.978;6.310;2023-03-01T06:45:23;16.60;;;14.82;;
54428;SDS011;40337;52.978;6.310;2023-03-01T06:47:49;16.67;;;14.98;;
54428;SDS011;40337;52.978;6.310;2023-03-01T06:50:15;16.25;;;14.55;;
54428;SDS011;40337;52.978;6.310;2023-03-01T06:52:41;16.92;;;15.23;;
54428;SDS011;40337;52.978;6.310;2023-03-01T06:55:08;16.95;;;15.15;;
54428;SDS011;40337;52.978;6.310;2023-03-01T06:57:34;17.35;;;15.65;;
54428;SDS011;40337;52.978;6.310;2023-03-01T07:00:00;16.38;;;14.75;;
54428;SDS011;40337;52.978;6.310;2023-03-01T07:02:25;16.27;;;14.65;;
54428;SDS011;40337;52.978;6.310;2023-03-01T07:04:51;15.18;;;13.68;;
54428;SDS011;40337;52.978;6.310;2023-03-01T07:07:17;14.93;;;13.40;;
54428;SDS011;40337;52.978;6.310;2023-03-01T07:09:46;15.57;;;14.07;;
54428;SDS011;40337;52.978;6.310;2023-03-01T07:12:13;15.82;;;14.32;;
54428;SDS011;40337;52.978;6.310;2023-03-01T07:14:38;14.82;;;13.43;;
54428;SDS011;40337;52.978;6.310;2023-03-01T07:17:04;15.23;;;13.68;;
54428;SDS011;40337;52.978;6.310;2023-03-01T07:19:29;15.23;;;13.73;;
54428;SDS011;40337;52.978;6.310;2023-03-01T07:21:55;16.17;;;14.57;;
54428;SDS011;40337;52.978;6.310;2023-03-01T07:24:21;15.25;;;13.75;;
54428;SDS011;40337;52.978;6.310;2023-03-01T07:26:50;15.65;;;14.07;;
54428;SDS011;40337;52.978;6.310;2023-03-01T07:29:16;16.20;;;14.50;;
54428;SDS011;40337;52.978;6.310;2023-03-01T07:31:42;14.75;;;13.35;;
54428;SDS011;40337;52.978;6.310;2023-03-01T07:34:08;14.27;;;12.88;;
54428;SDS011;40337;52.978;6.310;2023-03-01T07:36:33;15.45;;;13.95;;
54428;SDS011;40337;52.978;6.310;2023-03-01T07:38:59;14.40;;;13.00;;
54428;SDS011;40337;52.978;6.310;2023-03-01T07:41:27;15.18;;;13.68;;
54428;SDS011;40337;52.978;6.310;2023-03-01T07:43:53;14.88;;;13.27;;
54428;SDS011;40337;52.978;6.310;2023-03-01T07:46:18;16.92;;;15.23;;
54428;SDS011;40337;52.978;6.310;2023-03-01T07:48:44;16.65;;;14.93;;
54428;SDS011;40337;52.978;6.310;2023-03-01T07:51:10;18.88;;;16.98;;
54428;SDS011;40337;52.978;6.310;2023-03-01T07:53:36;17.08;;;15.38;;
54428;SDS011;40337;52.978;6.310;2023-03-01T07:56:02;18.58;;;16.70;;
54428;SDS011;40337;52.978;6.310;2023-03-01T07:58:40;18.10;;;16.20;;
54428;SDS011;40337;52.978;6.310;2023-03-01T08:01:07;17.30;;;15.55;;
54428;SDS011;40337;52.978;6.310;2023-03-01T08:03:35;17.52;;;15.82;;
54428;SDS011;40337;52.978;6.310;2023-03-01T08:06:02;17.90;;;16.10;;
54428;SDS011;40337;52.978;6.310;2023-03-01T08:08:28;17.85;;;15.98;;
54428;SDS011;40337;52.978;6.310;2023-03-01T08:11:00;17.75;;;15.95;;
54428;SDS011;40337;52.978;6.310;2023-03-01T08:13:27;18.30;;;16.50;;
54428;SDS011;40337;52.978;6.310;2023-03-01T08:15:53;18.75;;;16.85;;
54428;SDS011;40337;52.978;6.310;2023-03-01T08:18:19;19.10;;;17.10;;
54428;SDS011;40337;52.978;6.310;2023-03-01T08:20:45;18.33;;;16.52;;
54428;SDS011;40337;52.978;6.310;2023-03-01T08:23:11;18.48;;;16.67;;
54428;SDS011;40337;52.978;6.310;2023-03-01T08:25:37;19.08;;;16.48;;
54428;SDS011;40337;52.978;6.310;2023-03-01T08:28:03;18.23;;;16.30;;
54428;SDS011;40337;52.978;6.310;2023-03-01T08:30:30;18.13;;;16.33;;
54428;SDS011;40337;52.978;6.310;2023-03-01T08:32:55;18.73;;;16.67;;
54428;SDS011;40337;52.978;6.310;2023-03-01T08:35:21;19.63;;;17.63;;
54428;SDS011;40337;52.978;6.310;2023-03-01T08:37:47;21.67;;;19.48;;
54428;SDS011;40337;52.978;6.310;2023-03-01T08:40:12;21.60;;;19.30;;
54428;SDS011;40337;52.978;6.310;2023-03-01T08:42:39;20.83;;;18.63;;
54428;SDS011;40337;52.978;6.310;2023-03-01T08:45:06;21.38;;;19.08;;
54428;SDS011;40337;52.978;6.310;2023-03-01T08:47:32;21.13;;;18.92;;
54428;SDS011;40337;52.978;6.310;2023-03-01T08:49:58;21.17;;;18.95;;
54428;SDS011;40337;52.978;6.310;2023-03-01T08:52:24;20.33;;;18.25;;
54428;SDS011;40337;52.978;6.310;2023-03-01T08:54:51;23.25;;;19.70;;
54428;SDS011;40337;52.978;6.310;2023-03-01T08:57:16;21.27;;;19.02;;
54428;SDS011;40337;52.978;6.310;2023-03-01T08:59:42;20.80;;;18.60;;
54428;SDS011;40337;52.978;6.310;2023-03-01T09:02:12;20.67;;;18.40;;
54428;SDS011;40337;52.978;6.310;2023-03-01T09:04:39;19.40;;;17.40;;
54428;SDS011;40337;52.978;6.310;2023-03-01T09:07:05;21.35;;;17.95;;
54428;SDS011;40337;52.978;6.310;2023-03-01T09:09:30;38.72;;;18.45;;
54428;SDS011;40337;52.978;6.310;2023-03-01T09:11:56;68.07;;;20.95;;
54428;SDS011;40337;52.978;6.310;2023-03-01T09:14:22;20.52;;;18.33;;
54428;SDS011;40337;52.978;6.310;2023-03-01T09:16:47;20.65;;;18.45;;
54428;SDS011;40337;52.978;6.310;2023-03-01T09:19:13;20.48;;;18.25;;
54428;SDS011;40337;52.978;6.310;2023-03-01T09:21:39;23.55;;;18.85;;
54428;SDS011;40337;52.978;6.310;2023-03-01T09:24:05;19.48;;;17.38;;
54428;SDS011;40337;52.978;6.310;2023-03-01T09:26:36;22.50;;;19.98;;
54428;SDS011;40337;52.978;6.310;2023-03-01T09:29:02;24.95;;;20.73;;
54428;SDS011;40337;52.978;6.310;2023-03-01T09:31:27;23.55;;;20.13;;
54428;SDS011;40337;52.978;6.310;2023-03-01T09:33:53;23.77;;;21.00;;
54428;SDS011;40337;52.978;6.310;2023-03-01T09:36:20;24.10;;;20.80;;
54428;SDS011;40337;52.978;6.310;2023-03-01T09:38:48;23.10;;;20.50;;
54428;SDS011;40337;52.978;6.310;2023-03-01T09:44:00;26.73;;;22.02;;
54428;SDS011;40337;52.978;6.310;2023-03-01T09:46:35;23.55;;;20.60;;
54428;SDS011;40337;52.978;6.310;2023-03-01T09:49:17;24.95;;;21.02;;
54428;SDS011;40337;52.978;6.310;2023-03-01T09:52:12;24.02;;;20.73;;
54428;SDS011;40337;52.978;6.310;2023-03-01T09:55:16;24.95;;;20.85;;
54428;SDS011;40337;52.978;6.310;2023-03-01T09:58:00;22.48;;;19.90;;
54428;SDS011;40337;52.978;6.310;2023-03-01T10:00:39;22.52;;;19.75;;
54428;SDS011;40337;52.978;6.310;2023-03-01T10:05:57;22.67;;;19.73;;
54428;SDS011;40337;52.978;6.310;2023-03-01T10:11:05;21.20;;;18.25;;
54428;SDS011;40337;52.978;6.310;2023-03-01T10:13:54;21.08;;;17.77;;
54428;SDS011;40337;52.978;6.310;2023-03-01T10:16:54;18.33;;;15.98;;
54428;SDS011;40337;52.978;6.310;2023-03-01T10:22:05;17.63;;;15.48;;
54428;SDS011;40337;52.978;6.310;2023-03-01T10:24:38;15.77;;;13.93;;
54428;SDS011;40337;52.978;6.310;2023-03-01T10:27:25;15.23;;;12.48;;
54428;SDS011;40337;52.978;6.310;2023-03-01T10:32:41;16.35;;;13.38;;
54428;SDS011;40337;52.978;6.310;2023-03-01T10:35:17;14.88;;;12.38;;
54428;SDS011;40337;52.978;6.310;2023-03-01T10:37:56;13.73;;;12.25;;
54428;SDS011;40337;52.978;6.310;2023-03-01T10:40:23;13.25;;;11.77;;
54428;SDS011;40337;52.978;6.310;2023-03-01T10:42:48;14.93;;;11.95;;
54428;SDS011;40337;52.978;6.310;2023-03-01T10:47:42;13.30;;;11.90;;
54428;SDS011;40337;52.978;6.310;2023-03-01T10:50:18;13.95;;;11.88;;
54428;SDS011;40337;52.978;6.310;2023-03-01T10:52:55;13.85;;;11.80;;
54428;SDS011;40337;52.978;6.310;2023-03-01T10:55:25;14.88;;;12.32;;
54428;SDS011;40337;52.978;6.310;2023-03-01T10:58:06;12.82;;;11.43;;
54428;SDS011;40337;52.978;6.310;2023-03-01T11:00:32;13.07;;;11.65;;
54428;SDS011;40337;52.978;6.310;2023-03-01T11:05:23;13.43;;;11.68;;
54428;SDS011;40337;52.978;6.310;2023-03-01T11:10:17;16.08;;;13.65;;
54428;SDS011;40337;52.978;6.310;2023-03-01T11:12:47;15.50;;;13.00;;
54428;SDS011;40337;52.978;6.310;2023-03-01T11:15:19;14.77;;;12.45;;
54428;SDS011;40337;52.978;6.310;2023-03-01T11:17:53;15.02;;;12.30;;
54428;SDS011;40337;52.978;6.310;2023-03-01T11:23:10;14.77;;;12.30;;
54428;SDS011;40337;52.978;6.310;2023-03-01T11:25:49;15.95;;;12.90;;
54428;SDS011;40337;52.978;6.310;2023-03-01T11:28:24;13.80;;;12.38;;
54428;SDS011;40337;52.978;6.310;2023-03-01T11:30:56;15.15;;;12.57;;
54428;SDS011;40337;52.978;6.310;2023-03-01T11:36:00;15.05;;;12.57;;
54428;SDS011;40337;52.978;6.310;2023-03-01T11:38:27;15.02;;;11.85;;
54428;SDS011;40337;52.978;6.310;2023-03-01T11:40:57;14.23;;;12.13;;
54428;SDS011;40337;52.978;6.310;2023-03-01T11:54:57;14.38;;;11.57;;
54428;SDS011;40337;52.978;6.310;2023-03-01T12:03:16;13.45;;;10.80;;
54428;SDS011;40337;52.978;6.310;2023-03-01T12:09:01;11.00;;;9.75;;
54428;SDS011;40337;52.978;6.310;2023-03-01T12:11:52;12.25;;;10.45;;
54428;SDS011;40337;52.978;6.310;2023-03-01T12:14:35;11.50;;;9.70;;
54428;SDS011;40337;52.978;6.310;2023-03-01T12:20:14;11.30;;;9.75;;
54428;SDS011;40337;52.978;6.310;2023-03-01T12:22:54;10.65;;;8.80;;
54428;SDS011;40337;52.978;6.310;2023-03-01T12:25:39;11.05;;;9.38;;
54428;SDS011;40337;52.978;6.310;2023-03-01T12:36:36;12.00;;;9.07;;
54428;SDS011;40337;52.978;6.310;2023-03-01T12:39:15;10.77;;;9.18;;
54428;SDS011;40337;52.978;6.310;2023-03-01T12:42:04;12.48;;;10.70;;
54428;SDS011;40337;52.978;6.310;2023-03-01T12:45:02;13.00;;;10.50;;
54428;SDS011;40337;52.978;6.310;2023-03-01T12:50:21;12.25;;;11.02;;
54428;SDS011;40337;52.978;6.310;2023-03-01T12:52:50;14.18;;;10.93;;
54428;SDS011;40337;52.978;6.310;2023-03-01T12:55:28;12.07;;;10.38;;
54428;SDS011;40337;52.978;6.310;2023-03-01T12:58:00;11.88;;;10.25;;
54428;SDS011;40337;52.978;6.310;2023-03-01T13:00:32;11.35;;;10.15;;
54428;SDS011;40337;52.978;6.310;2023-03-01T13:03:17;13.43;;;11.85;;
54428;SDS011;40337;52.978;6.310;2023-03-01T13:05:56;13.80;;;11.50;;
54428;SDS011;40337;52.978;6.310;2023-03-01T13:11:10;13.35;;;11.98;;
54428;SDS011;40337;52.978;6.310;2023-03-01T13:13:42;13.75;;;12.13;;
54428;SDS011;40337;52.978;6.310;2023-03-01T13:16:51;12.90;;;10.48;;
54428;SDS011;40337;52.978;6.310;2023-03-01T13:19:06;13.88;;;11.07;;
54428;SDS011;40337;52.978;6.310;2023-03-01T13:21:36;12.35;;;11.02;;
54428;SDS011;40337;52.978;6.310;2023-03-01T13:24:02;12.40;;;10.73;;
54428;SDS011;40337;52.978;6.310;2023-03-01T13:26:27;12.90;;;10.77;;
54428;SDS011;40337;52.978;6.310;2023-03-01T13:28:54;13.00;;;11.43;;
54428;SDS011;40337;52.978;6.310;2023-03-01T13:33:50;12.80;;;11.30;;
54428;SDS011;40337;52.978;6.310;2023-03-01T13:38:58;14.32;;;11.63;;
54428;SDS011;40337;52.978;6.310;2023-03-01T13:49:36;13.13;;;11.38;;
54428;SDS011;40337;52.978;6.310;2023-03-01T13:54:58;13.68;;;12.27;;
54428;SDS011;40337;52.978;6.310;2023-03-01T13:57:28;14.88;;;12.13;;
54428;SDS011;40337;52.978;6.310;2023-03-01T13:59:59;14.00;;;12.50;;
54428;SDS011;40337;52.978;6.310;2023-03-01T14:02:24;14.25;;;12.75;;
54428;SDS011;40337;52.978;6.310;2023-03-01T14:04:56;14.38;;;12.50;;
54428;SDS011;40337;52.978;6.310;2023-03-01T14:07:23;14.30;;;12.80;;
54428;SDS011;40337;52.978;6.310;2023-03-01T14:09:54;14.10;;;12.60;;
54428;SDS011;40337;52.978;6.310;2023-03-01T14:12:27;14.38;;;12.15;;
54428;SDS011;40337;52.978;6.310;2023-03-01T14:17:42;15.48;;;13.07;;
54428;SDS011;40337;52.978;6.310;2023-03-01T14:20:23;15.18;;;12.65;;
54428;SDS011;40337;52.978;6.310;2023-03-01T14:22:52;14.60;;;13.10;;
54428;SDS011;40337;52.978;6.310;2023-03-01T14:25:21;14.00;;;12.18;;
54428;SDS011;40337;52.978;6.310;2023-03-01T14:27:57;16.00;;;12.77;;
54428;SDS011;40337;52.978;6.310;2023-03-01T14:30:46;14.60;;;12.50;;
54428;SDS011;40337;52.978;6.310;2023-03-01T14:33:33;14.77;;;12.32;;
54428;SDS011;40337;52.978;6.310;2023-03-01T14:36:02;14.02;;;12.40;;
54428;SDS011;40337;52.978;6.310;2023-03-01T14:41:00;15.23;;;13.70;;
54428;SDS011;40337;52.978;6.310;2023-03-01T14:43:29;14.45;;;12.68;;
54428;SDS011;40337;52.978;6.310;2023-03-01T14:45:56;15.30;;;12.85;;
54428;SDS011;40337;52.978;6.310;2023-03-01T14:48:22;13.90;;;12.45;;
54428;SDS011;40337;52.978;6.310;2023-03-01T14:50:48;14.80;;;12.18;;
54428;SDS011;40337;52.978;6.310;2023-03-01T14:53:19;14.73;;;12.00;;
54428;SDS011;40337;52.978;6.310;2023-03-01T14:55:49;12.77;;;11.43;;
54428;SDS011;40337;52.978;6.310;2023-03-01T14:58:19;14.52;;;12.05;;
54428;SDS011;40337;52.978;6.310;2023-03-01T15:00:57;14.63;;;12.25;;
54428;SDS011;40337;52.978;6.310;2023-03-01T15:03:43;13.95;;;12.50;;
54428;SDS011;40337;52.978;6.310;2023-03-01T15:06:11;12.90;;;11.57;;
54428;SDS011;40337;52.978;6.310;2023-03-01T15:08:42;14.23;;;12.70;;
54428;SDS011;40337;52.978;6.310;2023-03-01T15:16:54;13.82;;;11.85;;
54428;SDS011;40337;52.978;6.310;2023-03-01T15:19:20;13.52;;;11.85;;
54428;SDS011;40337;52.978;6.310;2023-03-01T15:21:49;13.60;;;12.20;;
54428;SDS011;40337;52.978;6.310;2023-03-01T15:24:20;13.98;;;12.48;;
54428;SDS011;40337;52.978;6.310;2023-03-01T15:29:26;13.73;;;12.25;;
54428;SDS011;40337;52.978;6.310;2023-03-01T15:32:05;15.20;;;12.48;;
54428;SDS011;40337;52.978;6.310;2023-03-01T15:34:48;13.63;;;11.95;;
54428;SDS011;40337;52.978;6.310;2023-03-01T15:40:02;14.85;;;13.25;;
54428;SDS011;40337;52.978;6.310;2023-03-01T15:45:08;14.45;;;12.32;;
54428;SDS011;40337;52.978;6.310;2023-03-01T15:47:35;14.35;;;12.85;;
54428;SDS011;40337;52.978;6.310;2023-03-01T15:50:04;15.55;;;13.38;;
54428;SDS011;40337;52.978;6.310;2023-03-01T15:52:39;16.38;;;13.77;;
54428;SDS011;40337;52.978;6.310;2023-03-01T15:55:10;14.60;;;13.05;;
54428;SDS011;40337;52.978;6.310;2023-03-01T16:00:33;16.08;;;14.35;;
54428;SDS011;40337;52.978;6.310;2023-03-01T16:02:59;17.35;;;15.23;;
54428;SDS011;40337;52.978;6.310;2023-03-01T16:05:26;17.65;;;14.55;;
54428;SDS011;40337;52.978;6.310;2023-03-01T16:07:54;17.70;;;15.80;;
54428;SDS011;40337;52.978;6.310;2023-03-01T16:10:20;16.50;;;14.10;;
54428;SDS011;40337;52.978;6.310;2023-03-01T16:12:46;17.67;;;14.77;;
54428;SDS011;40337;52.978;6.310;2023-03-01T16:17:43;18.65;;;15.48;;
54428;SDS011;40337;52.978;6.310;2023-03-01T16:20:09;17.77;;;15.88;;
54428;SDS011;40337;52.978;6.310;2023-03-01T16:22:35;18.90;;;15.75;;
54428;SDS011;40337;52.978;6.310;2023-03-01T16:25:00;17.05;;;15.23;;
54428;SDS011;40337;52.978;6.310;2023-03-01T16:27:27;18.50;;;16.48;;
54428;SDS011;40337;52.978;6.310;2023-03-01T16:29:53;19.10;;;17.05;;